Change the Weather History Date:

Thursday, December 26, 2013

  Actual Average Record
Temperature  
Mean Temperature 26 °F -  
Max Temperature 39 °F 30 °F 55 °F (2008)
Min Temperature 14 °F 12 °F -4 °F (2000)
Degree Days  
Heating Degree Days 38    
Moisture  
Dew Point 22 °F    
Average Humidity 81    
Maximum Humidity 93    
Minimum Humidity 61    
Precipitation  
Precipitation 0.00 in - - ()
Sea Level Pressure  
Sea Level Pressure 30.15 in    
Wind  
Wind Speed 7 mph (SSW)    
Max Wind Speed 14 mph    
Max Gust Speed -    
Visibility 10 miles    
Events Snow    
Averages and records for this station are not official NWS values.
T = Trace of Precipitation, MM = Missing Value Source: NWS Daily Summary

Daily Weather History Graph

Daily Weather History Graph

Search for Another Location

Airport or City:

Trip Planner

Search our weather history database for the weather conditions in past years. The results will help you decide how hot, cold, wet, or windy it might be!

Date:

Astronomy

Dec. 26, 2013 Rise Set
Actual Time 7:45 AM CST 4:56 PM CST
Civil Twilight 7:13 AM CST 5:28 PM CST
Nautical Twilight 6:38 AM CST 6:03 PM CST
Astronomical Twilight 6:05 AM CST 6:36 PM CST
Moon 1:11 AM CST (12/26) 12:35 PM CST (12/26)
Length of Visible Light 10h 14m
Length of Day
9h 11m
Last Quarter, 38% of the Moon is Illuminated
Dec 26
Last Quarter
Jan 1
New
Jan 7
First Quarter
Jan 15
Full
Jan 23
Last Quarter

Hourly Weather History & Observations

Time (CST) Temp. Windchill Dew Point Humidity Pressure Visibility Wind Dir Wind Speed Gust Speed Precip Events Conditions
12:15 AM 15.8 °F 7.2 °F 12.2 °F 86% 30.24 in 10.0 mi SSW 5.8 mph - N/A   Mostly Cloudy
12:35 AM 14.0 °F 5.1 °F 10.4 °F 86% 30.23 in 10.0 mi SW 5.8 mph - N/A   Overcast
12:55 AM 15.8 °F 5.1 °F 12.2 °F 86% 30.22 in - SSW 8.1 mph - N/A   Scattered Clouds
1:15 AM 17.6 °F 8.2 °F 14.0 °F 86% 30.20 in 10.0 mi SSW 6.9 mph - N/A   Clear
1:35 AM 15.8 °F 7.2 °F 14.0 °F 93% 30.19 in 10.0 mi SW 5.8 mph - N/A   Clear
1:55 AM 17.6 °F 10.7 °F 14.0 °F 86% 30.18 in 10.0 mi SW 4.6 mph - N/A   Clear
2:15 AM 15.8 °F 7.2 °F 12.2 °F 86% 30.18 in 10.0 mi SW 5.8 mph - N/A   Clear
2:35 AM 19.4 °F 8.6 °F 15.8 °F 86% 30.19 in 10.0 mi SW 9.2 mph - N/A   Partly Cloudy
2:55 AM 19.4 °F 7.9 °F 17.6 °F 93% 30.19 in 10.0 mi SW 10.4 mph - N/A   Partly Cloudy
3:15 AM 19.4 °F 10.4 °F 15.8 °F 86% 30.20 in 10.0 mi SSW 6.9 mph - N/A   Clear
3:35 AM 19.4 °F 9.5 °F 15.8 °F 86% 30.19 in 10.0 mi South 8.1 mph - N/A Snow Light Snow
3:55 AM 21.2 °F 10.1 °F 17.6 °F 86% 30.18 in 10.0 mi SSW 10.4 mph - N/A Snow Light Snow
4:15 AM 19.4 °F 7.9 °F 17.6 °F 93% 30.17 in 10.0 mi SSW 10.4 mph - N/A   Clear
4:35 AM 21.2 °F 10.9 °F 17.6 °F 86% 30.16 in 10.0 mi SSW 9.2 mph - N/A   Clear
4:55 AM 21.2 °F 10.9 °F 17.6 °F 86% 30.15 in 10.0 mi SSW 9.2 mph - N/A   Clear
5:15 AM 21.2 °F 10.1 °F 17.6 °F 86% 30.15 in 10.0 mi SSW 10.4 mph - N/A   Clear
5:35 AM 21.2 °F 10.1 °F 17.6 °F 86% 30.14 in 10.0 mi SSW 10.4 mph - N/A   Clear
5:55 AM 21.2 °F 9.5 °F 17.6 °F 86% 30.13 in 10.0 mi SSW 11.5 mph - N/A   Clear
6:15 AM 21.2 °F 10.9 °F 17.6 °F 86% 30.14 in 10.0 mi SSW 9.2 mph - N/A   Clear
6:35 AM 23.0 °F 12.4 °F 17.6 °F 80% 30.14 in 10.0 mi SSW 10.4 mph - N/A   Clear
6:55 AM 23.0 °F 13.1 °F 17.6 °F 80% 30.13 in 10.0 mi South 9.2 mph - N/A   Clear
7:15 AM 21.2 °F 11.7 °F 17.6 °F 86% 30.12 in 10.0 mi SSW 8.1 mph - N/A   Clear
7:35 AM 21.2 °F 11.7 °F 17.6 °F 86% 30.12 in 10.0 mi SSW 8.1 mph - N/A   Clear
7:55 AM 21.2 °F 11.7 °F 17.6 °F 86% 30.11 in 10.0 mi SSW 8.1 mph - N/A   Clear
8:15 AM 23.0 °F 13.1 °F 17.6 °F 80% 30.11 in 10.0 mi SSW 9.2 mph - N/A   Clear
8:35 AM 24.8 °F 12.9 °F 19.4 °F 80% 30.11 in 10.0 mi SSW 13.8 mph - N/A   Clear
8:55 AM 26.6 °F 16.2 °F 19.4 °F 74% 30.11 in 10.0 mi SSW 11.5 mph - N/A   Clear
9:15 AM 26.6 °F 15.7 °F 21.2 °F 80% 30.10 in 10.0 mi SSW 12.7 mph - N/A   Clear
9:35 AM 28.4 °F 19.7 °F 21.2 °F 74% 30.12 in - SSW 9.2 mph - N/A   Clear
9:55 AM 28.4 °F 19.1 °F 23.0 °F 80% 30.12 in 10.0 mi SW 10.4 mph - N/A   Mostly Cloudy
10:15 AM 30.2 °F 22.6 °F 23.0 °F 75% 30.13 in 10.0 mi SW 8.1 mph - N/A   Scattered Clouds
10:35 AM 32.0 °F 24.8 °F 24.8 °F 75% 30.13 in 10.0 mi SSW 8.1 mph - N/A   Mostly Cloudy
10:55 AM 33.8 °F 25.3 °F 24.8 °F 70% 30.13 in 10.0 mi SW 11.5 mph - N/A   Partly Cloudy
11:15 AM 33.8 °F 26.4 °F 24.8 °F 70% 30.13 in 10.0 mi SW 9.2 mph - N/A   Scattered Clouds
11:35 AM 33.8 °F 25.8 °F 24.8 °F 70% 30.11 in 10.0 mi SW 10.4 mph - N/A   Scattered Clouds
11:55 AM 33.8 °F 26.4 °F 24.8 °F 70% 30.11 in 10.0 mi SW 9.2 mph - N/A   Scattered Clouds
12:15 PM 35.6 °F 28.0 °F 24.8 °F 65% 30.11 in 10.0 mi SW 10.4 mph - N/A   Partly Cloudy
12:35 PM 35.6 °F 28.0 °F 24.8 °F 65% 30.10 in 10.0 mi SW 10.4 mph - N/A   Clear
12:55 PM 37.4 °F 30.3 °F 26.6 °F 65% 30.10 in 10.0 mi WSW 10.4 mph - N/A   Clear
1:15 PM 37.4 °F 29.8 °F 26.6 °F 65% 30.10 in 10.0 mi SW 11.5 mph - N/A   Clear
1:35 PM 37.4 °F 30.3 °F 26.6 °F 65% 30.10 in 10.0 mi WSW 10.4 mph - N/A   Clear
1:55 PM 39.2 °F 33.6 °F 26.6 °F 61% 30.10 in 10.0 mi WSW 8.1 mph - N/A   Clear
2:15 PM 39.2 °F 33.6 °F 26.6 °F 61% 30.09 in 10.0 mi WSW 8.1 mph - N/A   Clear
2:35 PM 39.2 °F 33.0 °F 26.6 °F 61% 30.10 in 10.0 mi SW 9.2 mph - N/A   Clear
2:55 PM 39.2 °F 33.0 °F 26.6 °F 61% 30.10 in 10.0 mi SW 9.2 mph - N/A   Clear
3:15 PM 39.2 °F 33.6 °F 28.4 °F 65% 30.11 in 10.0 mi SW 8.1 mph - N/A   Clear
3:35 PM 39.2 °F 33.0 °F 28.4 °F 65% 30.11 in 10.0 mi SW 9.2 mph - N/A   Clear
3:55 PM 39.2 °F 33.6 °F 28.4 °F 65% 30.12 in 10.0 mi SW 8.1 mph - N/A   Clear
4:15 PM 37.4 °F 31.4 °F 28.4 °F 70% 30.13 in 10.0 mi SW 8.1 mph - N/A   Clear
4:35 PM 35.6 °F 30.7 °F 28.4 °F 75% 30.14 in 10.0 mi SW 5.8 mph - N/A   Clear
4:55 PM 35.6 °F 29.9 °F 28.4 °F 75% 30.14 in 10.0 mi SSW 6.9 mph - N/A   Clear
5:15 PM 33.8 °F 27.0 °F 28.4 °F 81% 30.15 in 10.0 mi SSW 8.1 mph - N/A   Clear
5:35 PM 32.0 °F 25.6 °F 26.6 °F 80% 30.15 in 10.0 mi SSW 6.9 mph - N/A   Clear
5:55 PM 32.0 °F 28.7 °F 26.6 °F 80% 30.16 in 10.0 mi SSW 3.5 mph - N/A   Clear
6:15 PM 30.2 °F 25.4 °F 24.8 °F 80% 30.16 in 10.0 mi SSW 4.6 mph - N/A   Clear
6:35 PM 30.2 °F 26.7 °F 26.6 °F 86% 30.17 in 10.0 mi SSW 3.5 mph - N/A   Clear
6:55 PM 28.4 °F 22.2 °F 24.8 °F 86% 30.17 in 4.0 mi SSW 5.8 mph - N/A   Haze
7:15 PM 26.6 °F 21.2 °F 24.8 °F 93% 30.17 in 9.0 mi SSW 4.6 mph - N/A   Clear
7:35 PM 28.4 °F 24.6 °F 24.8 °F 86% 30.17 in 10.0 mi SSW 3.5 mph - N/A   Clear
7:55 PM 28.4 °F 23.3 °F 24.8 °F 86% 30.18 in 2.5 mi SW 4.6 mph - N/A   Clear
8:15 PM 26.6 °F 20.0 °F 24.8 °F 93% 30.18 in 10.0 mi SSW 5.8 mph - N/A   Clear
8:35 PM 26.6 °F - 23.0 °F 86% 30.19 in 10.0 mi Calm Calm - N/A   Clear
8:55 PM 28.4 °F - 24.8 °F 86% 30.20 in 10.0 mi Calm Calm - N/A   Clear
9:15 PM 24.8 °F - 23.0 °F 93% 30.20 in 10.0 mi Calm Calm - N/A   Clear
9:35 PM 24.8 °F - 23.0 °F 93% 30.20 in 10.0 mi Calm Calm - N/A   Clear
9:55 PM 24.8 °F - 21.2 °F 86% 30.21 in 10.0 mi Calm Calm - N/A   Clear
10:15 PM 23.0 °F - 21.2 °F 93% 30.21 in 10.0 mi Calm Calm - N/A   Clear
10:35 PM 21.2 °F - 19.4 °F 93% 30.22 in 10.0 mi Calm Calm - N/A   Clear
10:55 PM 23.0 °F - 21.2 °F 93% 30.22 in 10.0 mi Calm Calm - N/A   Clear
11:15 PM 21.2 °F - 19.4 °F 93% 30.22 in 10.0 mi Calm Calm - N/A   Clear
11:35 PM 21.2 °F 16.4 °F 19.4 °F 93% 30.23 in 10.0 mi SW 3.5 mph - N/A   Clear
11:55 PM 21.2 °F 13.6 °F 19.4 °F 93% 30.23 in 10.0 mi SSW 5.8 mph - N/A   Clear